createdAt,value
2023-01-25T00:00:53.628Z,2.30
2023-01-25T00:03:21.661Z,2.30
2023-01-25T00:05:49.674Z,2.30
2023-01-25T00:08:17.782Z,2.30
2023-01-25T00:10:45.742Z,2.30
2023-01-25T00:13:13.742Z,2.30
2023-01-25T00:15:41.742Z,2.30
2023-01-25T00:18:11.175Z,2.30
2023-01-25T00:20:39.171Z,2.30
2023-01-25T00:23:07.136Z,2.30
2023-01-25T00:25:35.124Z,2.30
2023-01-25T00:28:03.084Z,2.30
2023-01-25T00:30:31.015Z,2.30
2023-01-25T00:33:03.629Z,2.30
2023-01-25T00:35:33.504Z,2.30
2023-01-25T00:38:07.637Z,2.20
2023-01-25T00:40:35.703Z,2.20
2023-01-25T00:43:03.666Z,2.20
2023-01-25T00:45:31.667Z,2.20
2023-01-25T00:47:59.663Z,2.20
2023-01-25T00:50:27.610Z,2.20
2023-01-25T00:52:57.032Z,2.20
2023-01-25T00:55:25.032Z,2.20
2023-01-25T00:57:53.018Z,2.20
2023-01-25T01:00:21.018Z,2.20
2023-01-25T01:02:49.161Z,2.20
2023-01-25T01:05:17.256Z,2.20
2023-01-25T01:07:45.244Z,2.20
2023-01-25T01:10:14.613Z,2.20
2023-01-25T01:12:42.543Z,2.20
2023-01-25T01:15:11.225Z,2.20
2023-01-25T01:17:39.374Z,2.20
2023-01-25T01:20:07.943Z,2.20
2023-01-25T01:22:35.845Z,2.20
2023-01-25T01:25:03.798Z,2.20
2023-01-25T01:27:33.138Z,2.20
2023-01-25T01:30:01.108Z,2.20
2023-01-25T01:32:29.151Z,2.20
2023-01-25T01:34:57.154Z,2.20
2023-01-25T01:37:25.113Z,2.20
2023-01-25T01:39:53.525Z,2.20
2023-01-25T01:42:21.542Z,2.20
2023-01-25T01:44:53.004Z,2.20
2023-01-25T01:47:26.647Z,2.20
2023-01-25T01:49:57.802Z,2.20
2023-01-25T01:52:30.929Z,2.20
2023-01-25T01:55:03.110Z,2.10
2023-01-25T01:57:35.779Z,2.10
2023-01-25T02:00:09.664Z,2.10
2023-01-25T02:02:37.617Z,2.10
2023-01-25T02:05:10.358Z,2.20
2023-01-25T02:07:40.393Z,2.10
2023-01-25T02:10:11.451Z,2.20
2023-01-25T02:12:40.346Z,2.10
2023-01-25T02:15:11.615Z,2.10
2023-01-25T02:17:41.677Z,2.10
2023-01-25T02:20:20.366Z,2.10
2023-01-25T02:22:55.790Z,2.10
2023-01-25T02:25:25.147Z,2.10
2023-01-25T02:27:57.371Z,2.10
2023-01-25T02:30:25.326Z,2.10
2023-01-25T02:32:53.348Z,2.10
2023-01-25T02:35:22.637Z,2.10
2023-01-25T02:37:51.293Z,2.10
2023-01-25T02:40:20.015Z,2.10
2023-01-25T02:42:49.314Z,2.10
2023-01-25T02:45:20.105Z,2.10
2023-01-25T02:47:48.679Z,2.10
2023-01-25T02:50:17.343Z,2.10
2023-01-25T02:52:45.318Z,2.00
2023-01-25T02:55:13.310Z,2.10
2023-01-25T02:57:41.300Z,2.00
2023-01-25T03:00:13.036Z,2.00
2023-01-25T03:02:41.048Z,2.10
2023-01-25T03:05:10.149Z,2.00
2023-01-25T03:07:38.418Z,2.00
2023-01-25T03:10:07.008Z,2.10
2023-01-25T03:12:35.042Z,2.00
2023-01-25T03:15:03.009Z,2.10
2023-01-25T03:17:32.319Z,2.00
2023-01-25T03:20:00.254Z,2.00
2023-01-25T03:22:28.251Z,2.00
2023-01-25T03:24:57.296Z,2.00
2023-01-25T03:27:25.384Z,2.00
2023-01-25T03:29:53.321Z,2.00
2023-01-25T03:32:21.347Z,2.00
2023-01-25T03:34:50.771Z,2.00
2023-01-25T03:37:18.824Z,2.00
2023-01-25T03:39:46.848Z,2.00
2023-01-25T03:42:15.274Z,2.00
2023-01-25T03:44:43.219Z,2.00
2023-01-25T03:47:11.303Z,2.00
2023-01-25T03:49:39.319Z,2.00
2023-01-25T03:52:08.912Z,2.00
2023-01-25T03:54:36.842Z,2.00
2023-01-25T03:57:04.867Z,2.00
2023-01-25T03:59:32.782Z,2.00
2023-01-25T04:02:00.781Z,2.00
2023-01-25T04:04:28.781Z,2.00
2023-01-25T04:06:56.799Z,2.00
2023-01-25T04:09:26.090Z,2.00
2023-01-25T04:11:54.015Z,1.90
2023-01-25T04:14:35.066Z,1.90
2023-01-25T04:17:10.940Z,1.90
2023-01-25T04:19:38.936Z,1.90
2023-01-25T04:22:07.124Z,1.90
2023-01-25T04:24:36.429Z,1.90
2023-01-25T04:27:04.470Z,1.90
2023-01-25T04:29:41.085Z,1.90
2023-01-25T04:32:09.970Z,1.90
2023-01-25T04:34:38.230Z,1.90
2023-01-25T04:37:06.152Z,1.90
2023-01-25T04:39:34.117Z,1.90
2023-01-25T04:42:03.449Z,1.90
2023-01-25T04:44:31.441Z,1.90
2023-01-25T04:46:59.404Z,1.90
2023-01-25T04:49:27.370Z,1.90
2023-01-25T04:51:55.300Z,1.80
2023-01-25T04:54:23.259Z,1.90
2023-01-25T04:56:51.201Z,1.80
2023-01-25T04:59:20.536Z,1.80
2023-01-25T05:01:48.553Z,1.90
2023-01-25T05:04:16.537Z,1.90
2023-01-25T05:06:44.485Z,1.80
2023-01-25T05:09:12.461Z,1.80
2023-01-25T05:11:40.371Z,1.80
2023-01-25T05:14:08.436Z,1.80
2023-01-25T05:16:37.972Z,1.80
2023-01-25T05:19:06.005Z,1.80
2023-01-25T05:21:51.566Z,1.80
2023-01-25T05:24:19.595Z,1.80
2023-01-25T05:27:03.784Z,1.80
2023-01-25T05:29:35.797Z,1.80
2023-01-25T05:32:07.699Z,1.80
2023-01-25T05:34:36.592Z,1.80
2023-01-25T05:37:05.734Z,1.80
2023-01-25T05:39:34.026Z,1.80
2023-01-25T05:42:02.160Z,1.80
2023-01-25T05:44:30.451Z,1.80
2023-01-25T05:46:58.390Z,1.80
2023-01-25T05:49:27.729Z,1.80
2023-01-25T05:51:55.645Z,1.80
2023-01-25T05:54:23.635Z,1.80
2023-01-25T05:56:51.804Z,1.80
2023-01-25T05:59:19.929Z,1.70
2023-01-25T06:01:47.997Z,1.70
2023-01-25T06:04:16.921Z,1.80
2023-01-25T06:06:46.271Z,1.70
2023-01-25T06:09:14.662Z,1.70
2023-01-25T06:11:45.186Z,1.70
2023-01-25T06:14:13.558Z,1.70
2023-01-25T06:16:41.543Z,1.70
2023-01-25T06:19:09.698Z,1.70
2023-01-25T06:21:37.943Z,1.70
2023-01-25T06:24:08.357Z,1.70
2023-01-25T06:26:36.345Z,1.70
2023-01-25T06:29:06.435Z,1.70
2023-01-25T06:31:34.770Z,1.70
2023-01-25T06:34:06.234Z,1.70
2023-01-25T06:36:34.298Z,1.70
2023-01-25T06:39:02.525Z,1.70
2023-01-25T06:41:31.915Z,1.70
2023-01-25T06:43:59.885Z,1.70
2023-01-25T06:46:28.134Z,1.60
2023-01-25T06:48:56.171Z,1.60
2023-01-25T06:51:24.085Z,1.60
2023-01-25T06:53:52.098Z,1.60
2023-01-25T06:56:22.620Z,1.60
2023-01-25T06:58:51.952Z,1.60
2023-01-25T07:01:21.723Z,1.60
2023-01-25T07:03:50.509Z,1.60
2023-01-25T07:06:18.895Z,1.60
2023-01-25T07:08:47.541Z,1.60
2023-01-25T07:11:16.136Z,1.60
2023-01-25T07:13:45.627Z,1.60
2023-01-25T07:16:16.865Z,1.50
2023-01-25T07:18:45.243Z,1.60
2023-01-25T07:21:17.153Z,1.50
2023-01-25T07:23:45.553Z,1.60
2023-01-25T07:26:17.620Z,1.50
2023-01-25T07:28:45.896Z,1.50
2023-01-25T07:31:16.148Z,1.50
2023-01-25T07:33:44.742Z,1.60
2023-01-25T07:36:12.902Z,1.60
2023-01-25T07:38:41.096Z,1.50
2023-01-25T07:41:09.192Z,1.50
2023-01-25T07:43:37.214Z,1.50
2023-01-25T07:46:07.165Z,1.50
2023-01-25T07:48:36.483Z,1.50
2023-01-25T07:51:22.883Z,1.50
2023-01-25T07:53:52.336Z,1.50
2023-01-25T07:56:21.596Z,1.50
2023-01-25T07:58:49.804Z,1.50
2023-01-25T08:01:19.680Z,1.50
2023-01-25T08:03:50.314Z,1.50
2023-01-25T08:06:19.342Z,1.50
2023-01-25T08:08:49.275Z,1.50
2023-01-25T08:11:19.541Z,1.50
2023-01-25T08:13:49.606Z,1.50
2023-01-25T08:16:19.050Z,1.50
2023-01-25T08:18:50.413Z,1.50
2023-01-25T08:21:18.550Z,1.50
2023-01-25T08:23:46.724Z,1.50
2023-01-25T08:26:16.860Z,1.40
2023-01-25T08:28:44.994Z,1.40
2023-01-25T08:31:14.985Z,1.40
2023-01-25T08:33:46.048Z,1.40
2023-01-25T08:36:16.691Z,1.40
2023-01-25T08:38:44.886Z,1.40
2023-01-25T08:41:14.761Z,1.40
2023-01-25T08:43:43.208Z,1.40
2023-01-25T08:46:12.013Z,1.40
2023-01-25T08:48:40.198Z,1.50
2023-01-25T08:51:10.251Z,1.40
2023-01-25T08:53:39.553Z,1.50
2023-01-25T08:56:10.077Z,1.40
2023-01-25T08:58:39.798Z,1.40
2023-01-25T09:01:09.499Z,1.40
2023-01-25T09:03:39.113Z,1.40
2023-01-25T09:06:08.225Z,1.40
2023-01-25T09:08:38.152Z,1.40
2023-01-25T09:11:08.617Z,1.40
2023-01-25T09:13:37.029Z,1.40
2023-01-25T09:16:08.177Z,1.40
2023-01-25T09:18:38.319Z,1.50
2023-01-25T09:21:07.726Z,1.50
2023-01-25T09:23:44.404Z,1.40
2023-01-25T09:26:25.193Z,1.40
2023-01-25T09:28:55.166Z,1.50
2023-01-25T09:31:24.990Z,1.50
2023-01-25T09:33:53.889Z,1.50
2023-01-25T09:36:21.813Z,1.50
2023-01-25T09:38:49.824Z,1.50
2023-01-25T09:41:49.301Z,1.50
2023-01-25T09:44:32.171Z,1.50
2023-01-25T09:47:03.672Z,1.50
2023-01-25T09:49:43.618Z,1.50
2023-01-25T09:52:26.433Z,1.50
2023-01-25T09:54:54.528Z,1.60
2023-01-25T09:57:28.623Z,1.60
2023-01-25T09:59:57.606Z,1.60
2023-01-25T10:02:38.226Z,1.50
2023-01-25T10:05:12.530Z,1.60
2023-01-25T10:07:52.294Z,1.60
2023-01-25T10:10:22.985Z,1.60
2023-01-25T10:12:52.366Z,1.60
2023-01-25T10:15:22.567Z,1.60
2023-01-25T10:17:59.283Z,1.60
2023-01-25T10:20:34.646Z,1.60
2023-01-25T10:23:22.646Z,1.60
2023-01-25T10:25:58.978Z,1.60
2023-01-25T10:28:40.778Z,1.60
2023-01-25T10:31:17.737Z,1.60
2023-01-25T10:33:47.292Z,1.60
2023-01-25T10:36:17.057Z,1.60
2023-01-25T10:38:47.269Z,1.60
2023-01-25T10:41:21.067Z,1.60
2023-01-25T10:44:10.992Z,1.60
2023-01-25T10:46:40.891Z,1.60
2023-01-25T10:49:24.444Z,1.60
2023-01-25T10:51:52.458Z,1.60
2023-01-25T10:54:22.822Z,1.70
2023-01-25T10:56:51.952Z,1.70
2023-01-25T10:59:24.987Z,1.70
2023-01-25T11:01:53.436Z,1.70
2023-01-25T11:04:36.975Z,1.70
2023-01-25T11:07:06.438Z,1.70
2023-01-25T11:09:40.032Z,1.70
2023-01-25T11:12:19.770Z,1.70
2023-01-25T11:14:50.913Z,1.70
2023-01-25T11:17:30.210Z,1.70
2023-01-25T11:20:18.486Z,1.70
2023-01-25T11:22:54.198Z,1.70
2023-01-25T11:25:31.108Z,1.80
2023-01-25T11:28:20.161Z,1.80
2023-01-25T11:30:50.091Z,1.80
2023-01-25T11:33:21.118Z,1.80
2023-01-25T11:36:14.092Z,1.80
2023-01-25T11:38:54.436Z,1.80
2023-01-25T11:41:27.932Z,1.80
2023-01-25T11:44:19.446Z,1.80
2023-01-25T11:47:00.282Z,1.80
2023-01-25T11:49:37.563Z,1.80
2023-01-25T11:52:15.562Z,1.80
2023-01-25T11:54:53.402Z,1.80
2023-01-25T11:57:47.661Z,1.80
2023-01-25T12:00:31.102Z,1.80
2023-01-25T12:03:31.476Z,1.80
2023-01-25T12:06:07.495Z,1.90
2023-01-25T12:08:58.286Z,1.90
2023-01-25T12:11:41.790Z,1.90
2023-01-25T12:14:21.275Z,1.90
2023-01-25T12:17:03.304Z,1.90
2023-01-25T12:19:49.266Z,1.90
2023-01-25T12:22:59.096Z,1.90
2023-01-25T12:25:33.590Z,1.90
2023-01-25T12:28:12.121Z,1.90
2023-01-25T12:30:50.193Z,1.90
2023-01-25T12:33:24.706Z,1.90
2023-01-25T12:35:58.809Z,1.90
2023-01-25T12:38:35.142Z,1.90
2023-01-25T12:41:08.970Z,1.90
2023-01-25T12:43:43.115Z,1.90
2023-01-25T12:46:17.040Z,2.00
2023-01-25T12:48:49.756Z,1.90
2023-01-25T12:51:20.310Z,2.00
2023-01-25T12:53:51.853Z,2.00
2023-01-25T12:56:33.593Z,2.00
2023-01-25T12:59:09.003Z,2.00
2023-01-25T13:01:42.287Z,2.00
2023-01-25T13:04:26.875Z,2.00
2023-01-25T13:07:02.639Z,2.00
2023-01-25T13:09:40.674Z,2.00
2023-01-25T13:12:13.087Z,2.00
2023-01-25T13:14:42.359Z,2.00
2023-01-25T13:17:26.209Z,2.00
2023-01-25T13:19:54.399Z,2.00
2023-01-25T13:22:58.839Z,2.00
2023-01-25T13:25:28.614Z,2.00
2023-01-25T13:28:38.101Z,2.00
2023-01-25T13:31:06.203Z,2.10
2023-01-25T13:33:35.657Z,2.00
2023-01-25T13:36:50.986Z,2.00
2023-01-25T13:39:42.425Z,2.00
2023-01-25T13:42:22.836Z,2.00
2023-01-25T13:44:53.431Z,2.00
2023-01-25T13:47:24.634Z,2.00
2023-01-25T13:49:58.322Z,2.00
2023-01-25T13:52:28.383Z,2.00
2023-01-25T13:54:58.216Z,2.00
2023-01-25T13:57:29.147Z,2.00
2023-01-25T14:00:10.109Z,2.00
2023-01-25T14:02:40.082Z,2.00
2023-01-25T14:05:18.944Z,2.00
2023-01-25T14:07:48.679Z,2.00
2023-01-25T14:10:23.413Z,2.10
2023-01-25T14:12:54.154Z,2.00
2023-01-25T14:15:24.760Z,2.00
2023-01-25T14:18:12.223Z,2.00
2023-01-25T14:20:40.347Z,2.00
2023-01-25T14:23:25.773Z,2.00
2023-01-25T14:25:55.030Z,2.00
2023-01-25T14:28:24.409Z,2.00
2023-01-25T14:30:55.958Z,2.00
2023-01-25T14:33:27.241Z,2.00
2023-01-25T14:36:01.622Z,2.00
2023-01-25T14:38:34.790Z,2.00
2023-01-25T14:41:08.545Z,2.00
2023-01-25T14:43:43.077Z,2.00
2023-01-25T14:46:27.380Z,2.00
2023-01-25T14:49:15.826Z,2.00
2023-01-25T14:51:46.645Z,2.00
2023-01-25T14:54:18.913Z,2.00
2023-01-25T14:56:48.965Z,2.00
2023-01-25T14:59:28.362Z,2.00
2023-01-25T15:01:59.216Z,2.00
2023-01-25T15:04:27.485Z,1.90
2023-01-25T15:06:59.079Z,2.00
2023-01-25T15:09:42.329Z,1.90
2023-01-25T15:12:28.875Z,1.90
2023-01-25T15:15:00.045Z,1.90
2023-01-25T15:17:43.142Z,1.90
2023-01-25T15:20:39.258Z,1.90
2023-01-25T15:23:23.797Z,1.90
2023-01-25T15:25:53.747Z,1.90
2023-01-25T15:28:23.265Z,1.90
2023-01-25T15:30:52.943Z,1.90
2023-01-25T15:33:23.642Z,1.90
2023-01-25T15:35:54.011Z,1.90
2023-01-25T15:38:22.913Z,1.90
2023-01-25T15:40:50.954Z,1.90
2023-01-25T15:43:20.621Z,1.90
2023-01-25T15:45:52.040Z,1.90
2023-01-25T15:48:28.671Z,1.90
2023-01-25T15:50:57.589Z,1.90
2023-01-25T15:53:26.245Z,1.90
2023-01-25T15:55:58.254Z,1.90
2023-01-25T15:58:31.477Z,1.90
2023-01-25T16:01:00.205Z,1.90
2023-01-25T16:03:29.898Z,1.80
2023-01-25T16:06:00.185Z,1.90
2023-01-25T16:08:29.095Z,1.80
2023-01-25T16:10:57.412Z,1.80
2023-01-25T16:13:25.674Z,1.80
2023-01-25T16:15:56.827Z,1.90
2023-01-25T16:18:24.796Z,1.80
2023-01-25T16:20:54.052Z,1.80
2023-01-25T16:23:22.055Z,1.80
2023-01-25T16:25:50.328Z,1.80
2023-01-25T16:28:18.658Z,1.80
2023-01-25T16:30:46.696Z,1.80
2023-01-25T16:33:14.720Z,1.80
2023-01-25T16:35:42.675Z,1.80
2023-01-25T16:38:13.555Z,1.80
2023-01-25T16:40:41.663Z,1.80
2023-01-25T16:43:09.657Z,1.80
2023-01-25T16:45:37.873Z,1.80
2023-01-25T16:48:06.438Z,1.80
2023-01-25T16:50:35.438Z,1.80
2023-01-25T16:53:03.414Z,1.80
2023-01-25T16:55:32.751Z,1.80
2023-01-25T16:58:00.716Z,1.70
2023-01-25T17:00:28.695Z,1.80
2023-01-25T17:02:59.417Z,1.70
2023-01-25T17:05:33.667Z,1.70
2023-01-25T17:08:01.771Z,1.70
2023-01-25T17:10:33.107Z,1.70
2023-01-25T17:13:02.597Z,1.70
2023-01-25T17:15:30.813Z,1.70
2023-01-25T17:17:58.783Z,1.70
2023-01-25T17:20:26.709Z,1.70
2023-01-25T17:22:54.658Z,1.70
2023-01-25T17:25:23.079Z,1.70
2023-01-25T17:27:50.994Z,1.70
2023-01-25T17:30:20.641Z,1.70
2023-01-25T17:32:48.561Z,1.70
2023-01-25T17:35:16.674Z,1.70
2023-01-25T17:37:44.625Z,1.60
2023-01-25T17:40:13.659Z,1.60
2023-01-25T17:42:41.645Z,1.60
2023-01-25T17:45:10.414Z,1.60
2023-01-25T17:47:40.005Z,1.60
2023-01-25T17:50:09.948Z,1.60
2023-01-25T17:52:38.209Z,1.70
2023-01-25T17:55:07.177Z,1.70
2023-01-25T17:57:37.133Z,1.60
2023-01-25T18:00:06.982Z,1.70
2023-01-25T18:02:35.035Z,1.60
2023-01-25T18:05:04.470Z,1.60
2023-01-25T18:07:32.398Z,1.60
2023-01-25T18:10:00.362Z,1.60
2023-01-25T18:12:28.542Z,1.60
2023-01-25T18:14:56.528Z,1.60
2023-01-25T18:17:24.515Z,1.60
2023-01-25T18:19:52.894Z,1.60
2023-01-25T18:22:23.361Z,1.60
2023-01-25T18:24:52.347Z,1.60
2023-01-25T18:27:22.315Z,1.60
2023-01-25T18:29:55.943Z,1.60
2023-01-25T18:32:24.171Z,1.60
2023-01-25T18:34:52.362Z,1.60
2023-01-25T18:37:23.356Z,1.50
2023-01-25T18:39:52.828Z,1.50
2023-01-25T18:42:21.942Z,1.50
2023-01-25T18:44:50.096Z,1.50
2023-01-25T18:47:19.667Z,1.50
2023-01-25T18:49:47.884Z,1.50
2023-01-25T18:52:16.679Z,1.50
2023-01-25T18:54:46.233Z,1.50
2023-01-25T18:57:15.364Z,1.50
2023-01-25T18:59:43.833Z,1.50
2023-01-25T19:02:13.441Z,1.50
2023-01-25T19:04:41.686Z,1.50
2023-01-25T19:07:09.943Z,1.50
2023-01-25T19:09:37.985Z,1.50
2023-01-25T19:12:07.891Z,1.50
2023-01-25T19:14:35.903Z,1.50
2023-01-25T19:17:03.941Z,1.50
2023-01-25T19:19:33.647Z,1.50
2023-01-25T19:22:02.104Z,1.50
2023-01-25T19:24:30.105Z,1.50
2023-01-25T19:26:58.106Z,1.50
2023-01-25T19:29:27.551Z,1.50
2023-01-25T19:31:55.617Z,1.50
2023-01-25T19:34:23.580Z,1.50
2023-01-25T19:36:53.698Z,1.50
2023-01-25T19:39:21.777Z,1.50
2023-01-25T19:41:53.025Z,1.50
2023-01-25T19:44:21.229Z,1.50
2023-01-25T19:46:50.612Z,1.50
2023-01-25T19:49:18.766Z,1.50
2023-01-25T19:51:52.912Z,1.50
2023-01-25T19:54:21.845Z,1.50
2023-01-25T19:56:50.712Z,1.50
2023-01-25T19:59:20.540Z,1.50
2023-01-25T20:01:50.274Z,1.50
2023-01-25T20:04:20.735Z,1.50
2023-01-25T20:06:49.450Z,1.50
2023-01-25T20:09:19.936Z,1.50
2023-01-25T20:11:48.245Z,1.50
2023-01-25T20:14:16.584Z,1.50
2023-01-25T20:16:44.537Z,1.50
2023-01-25T20:19:14.056Z,1.50
2023-01-25T20:21:42.133Z,1.50
2023-01-25T20:24:11.028Z,1.40
2023-01-25T20:26:42.778Z,1.40
2023-01-25T20:29:12.121Z,1.40
2023-01-25T20:31:41.402Z,1.40
2023-01-25T20:34:13.916Z,1.40
2023-01-25T20:36:43.099Z,1.40
2023-01-25T20:39:13.383Z,1.40
2023-01-25T20:41:41.421Z,1.40
2023-01-25T20:44:11.247Z,1.40
2023-01-25T20:46:40.543Z,1.40
2023-01-25T20:49:10.206Z,1.40
2023-01-25T20:51:39.924Z,1.40
2023-01-25T20:54:07.869Z,1.40
2023-01-25T20:56:36.069Z,1.40
2023-01-25T20:59:04.348Z,1.40
2023-01-25T21:01:37.333Z,1.40
2023-01-25T21:04:06.676Z,1.40
2023-01-25T21:06:35.561Z,1.40
2023-01-25T21:09:05.493Z,1.40
2023-01-25T21:11:34.597Z,1.40
2023-01-25T21:14:02.733Z,1.40
2023-01-25T21:16:30.830Z,1.40
2023-01-25T21:19:00.130Z,1.40
2023-01-25T21:21:29.442Z,1.40
2023-01-25T21:24:00.040Z,1.40
2023-01-25T21:26:31.410Z,1.40
2023-01-25T21:29:00.856Z,1.40
2023-01-25T21:31:32.682Z,1.40
2023-01-25T21:34:01.209Z,1.40
2023-01-25T21:36:29.837Z,1.40
2023-01-25T21:38:58.271Z,1.40
2023-01-25T21:41:29.369Z,1.40
2023-01-25T21:44:17.585Z,1.40
2023-01-25T21:47:00.736Z,1.40
2023-01-25T21:49:51.584Z,1.40
2023-01-25T21:52:19.585Z,1.40
2023-01-25T21:54:47.552Z,1.40
2023-01-25T21:57:15.472Z,1.40
2023-01-25T21:59:44.808Z,1.40
2023-01-25T22:02:15.068Z,1.40
2023-01-25T22:04:43.125Z,1.40
2023-01-25T22:07:11.521Z,1.40
2023-01-25T22:09:39.429Z,1.40
2023-01-25T22:12:07.482Z,1.40
2023-01-25T22:14:36.550Z,1.40
2023-01-25T22:17:05.866Z,1.40
2023-01-25T22:19:34.208Z,1.40
2023-01-25T22:22:02.171Z,1.40
2023-01-25T22:24:30.071Z,1.40
2023-01-25T22:27:05.217Z,1.40
2023-01-25T22:29:34.115Z,1.40
2023-01-25T22:32:02.289Z,1.40
2023-01-25T22:34:31.789Z,1.40
2023-01-25T22:36:59.748Z,1.40
2023-01-25T22:39:27.762Z,1.40
2023-01-25T22:41:56.375Z,1.40
2023-01-25T22:44:24.329Z,1.40
2023-01-25T22:46:53.780Z,1.40
2023-01-25T22:49:21.846Z,1.40
2023-01-25T22:51:51.191Z,1.40
2023-01-25T22:54:19.238Z,1.40
2023-01-25T22:56:47.178Z,1.40
2023-01-25T22:59:18.870Z,1.40
2023-01-25T23:01:47.251Z,1.40
2023-01-25T23:04:15.250Z,1.40
2023-01-25T23:06:43.291Z,1.40
2023-01-25T23:09:12.642Z,1.40
2023-01-25T23:11:40.683Z,1.40
2023-01-25T23:14:27.688Z,1.40
2023-01-25T23:17:15.832Z,1.40
2023-01-25T23:19:42.801Z,1.40
2023-01-25T23:22:10.725Z,1.40
2023-01-25T23:24:40.067Z,1.40
2023-01-25T23:27:08.075Z,1.40
2023-01-25T23:29:37.120Z,1.40
2023-01-25T23:32:05.153Z,1.40
2023-01-25T23:34:34.949Z,1.40
2023-01-25T23:37:03.081Z,1.40
2023-01-25T23:39:31.019Z,1.40
2023-01-25T23:42:00.365Z,1.40
2023-01-25T23:44:28.306Z,1.40
2023-01-25T23:46:56.411Z,1.40
2023-01-25T23:49:24.351Z,1.40
2023-01-25T23:51:52.270Z,1.40
2023-01-25T23:54:20.194Z,1.40
2023-01-25T23:56:48.186Z,1.40
2023-01-25T23:59:17.453Z,1.40
